sensor_id;sensor_type;location;lat;lon;timestamp;pressure;altitude;pressure_sealevel;temperature;humidity
3122;BME280;1571;52.524;14.104;2023-03-14T00:00:31;98737.41;;;12.13;86.50
3122;BME280;1571;52.524;14.104;2023-03-14T00:02:59;98729.75;;;12.10;86.66
3122;BME280;1571;52.524;14.104;2023-03-14T00:05:27;98730.56;;;12.10;86.86
3122;BME280;1571;52.524;14.104;2023-03-14T00:07:55;98712.13;;;11.91;86.90
3122;BME280;1571;52.524;14.104;2023-03-14T00:10:25;98708.78;;;11.88;87.17
3122;BME280;1571;52.524;14.104;2023-03-14T00:12:53;98718.88;;;11.85;87.38
3122;BME280;1571;52.524;14.104;2023-03-14T00:15:21;98719.16;;;11.82;87.75
3122;BME280;1571;52.524;14.104;2023-03-14T00:17:50;98718.44;;;11.72;88.17
3122;BME280;1571;52.524;14.104;2023-03-14T00:20:18;98721.78;;;11.74;88.28
3122;BME280;1571;52.524;14.104;2023-03-14T00:22:46;98706.19;;;11.79;88.43
3122;BME280;1571;52.524;14.104;2023-03-14T00:25:14;98710.00;;;11.76;88.75
3122;BME280;1571;52.524;14.104;2023-03-14T00:27:44;98709.69;;;11.79;88.97
3122;BME280;1571;52.524;14.104;2023-03-14T00:30:13;98702.56;;;11.62;89.31
3122;BME280;1571;52.524;14.104;2023-03-14T00:32:41;98689.88;;;11.56;90.03
3122;BME280;1571;52.524;14.104;2023-03-14T00:35:10;98667.25;;;11.52;90.70
3122;BME280;1571;52.524;14.104;2023-03-14T00:37:38;98652.06;;;11.62;90.98
3122;BME280;1571;52.524;14.104;2023-03-14T00:40:07;98645.75;;;11.63;91.74
3122;BME280;1571;52.524;14.104;2023-03-14T00:42:36;98646.69;;;11.54;92.00
3122;BME280;1571;52.524;14.104;2023-03-14T00:45:06;98648.56;;;11.43;92.92
3122;BME280;1571;52.524;14.104;2023-03-14T00:47:35;98642.78;;;11.48;93.18
3122;BME280;1571;52.524;14.104;2023-03-14T00:50:04;98629.13;;;11.43;93.60
3122;BME280;1571;52.524;14.104;2023-03-14T00:52:33;98623.09;;;11.33;94.39
3122;BME280;1571;52.524;14.104;2023-03-14T00:55:01;98627.53;;;11.32;94.67
3122;BME280;1571;52.524;14.104;2023-03-14T00:57:29;98612.47;;;11.33;95.38
3122;BME280;1571;52.524;14.104;2023-03-14T00:59:57;98618.38;;;11.27;95.86
3122;BME280;1571;52.524;14.104;2023-03-14T01:02:28;98636.28;;;11.24;96.19
3122;BME280;1571;52.524;14.104;2023-03-14T01:04:56;98643.09;;;11.27;96.65
3122;BME280;1571;52.524;14.104;2023-03-14T01:07:24;98624.16;;;11.22;97.20
3122;BME280;1571;52.524;14.104;2023-03-14T01:09:52;98624.59;;;11.17;97.53
3122;BME280;1571;52.524;14.104;2023-03-14T01:12:20;98619.56;;;11.14;97.92
3122;BME280;1571;52.524;14.104;2023-03-14T01:14:49;98609.19;;;11.21;98.18
3122;BME280;1571;52.524;14.104;2023-03-14T01:17:17;98602.06;;;11.03;98.79
3122;BME280;1571;52.524;14.104;2023-03-14T01:19:46;98604.25;;;11.08;99.32
3122;BME280;1571;52.524;14.104;2023-03-14T01:22:15;98603.47;;;10.98;99.85
3122;BME280;1571;52.524;14.104;2023-03-14T01:24:43;98612.38;;;11.07;100.00
3122;BME280;1571;52.524;14.104;2023-03-14T01:27:12;98606.28;;;10.96;100.00
3122;BME280;1571;52.524;14.104;2023-03-14T01:29:40;98608.69;;;10.90;100.00
3122;BME280;1571;52.524;14.104;2023-03-14T01:32:08;98605.69;;;11.02;100.00
3122;BME280;1571;52.524;14.104;2023-03-14T01:34:37;98630.28;;;11.04;100.00
3122;BME280;1571;52.524;14.104;2023-03-14T01:37:07;98648.16;;;11.02;100.00
3122;BME280;1571;52.524;14.104;2023-03-14T01:39:37;98675.72;;;11.01;100.00
3122;BME280;1571;52.524;14.104;2023-03-14T01:42:05;98674.66;;;11.12;100.00
3122;BME280;1571;52.524;14.104;2023-03-14T01:44:51;98665.41;;;11.16;100.00
3122;BME280;1571;52.524;14.104;2023-03-14T01:47:20;98656.50;;;11.08;100.00
3122;BME280;1571;52.524;14.104;2023-03-14T01:49:51;98656.22;;;11.11;100.00
3122;BME280;1571;52.524;14.104;2023-03-14T01:52:25;98669.19;;;11.14;100.00
3122;BME280;1571;52.524;14.104;2023-03-14T01:54:59;98658.56;;;11.14;100.00
3122;BME280;1571;52.524;14.104;2023-03-14T01:57:30;98667.91;;;11.18;100.00
3122;BME280;1571;52.524;14.104;2023-03-14T02:00:04;98677.41;;;11.20;100.00
3122;BME280;1571;52.524;14.104;2023-03-14T02:02:44;98682.47;;;11.14;100.00
3122;BME280;1571;52.524;14.104;2023-03-14T02:05:17;98679.69;;;11.15;100.00
3122;BME280;1571;52.524;14.104;2023-03-14T02:07:55;98683.75;;;11.10;100.00
3122;BME280;1571;52.524;14.104;2023-03-14T02:10:31;98680.38;;;11.17;100.00
3122;BME280;1571;52.524;14.104;2023-03-14T02:13:03;98672.16;;;11.11;100.00
3122;BME280;1571;52.524;14.104;2023-03-14T02:15:46;98676.03;;;11.16;100.00
3122;BME280;1571;52.524;14.104;2023-03-14T02:18:33;98662.28;;;11.03;100.00
3122;BME280;1571;52.524;14.104;2023-03-14T02:21:23;98649.69;;;11.05;100.00
3122;BME280;1571;52.524;14.104;2023-03-14T02:24:06;98644.44;;;10.95;100.00
3122;BME280;1571;52.524;14.104;2023-03-14T02:29:31;98645.72;;;10.91;100.00
3122;BME280;1571;52.524;14.104;2023-03-14T02:32:01;98632.75;;;10.88;100.00
3122;BME280;1571;52.524;14.104;2023-03-14T02:34:30;98623.09;;;10.87;100.00
3122;BME280;1571;52.524;14.104;2023-03-14T02:37:00;98621.13;;;10.89;100.00
3122;BME280;1571;52.524;14.104;2023-03-14T02:39:35;98620.38;;;10.79;100.00
3122;BME280;1571;52.524;14.104;2023-03-14T02:42:03;98606.34;;;10.87;100.00
3122;BME280;1571;52.524;14.104;2023-03-14T02:44:33;98605.16;;;10.81;100.00
3122;BME280;1571;52.524;14.104;2023-03-14T02:47:04;98599.44;;;10.76;100.00
3122;BME280;1571;52.524;14.104;2023-03-14T02:49:33;98598.84;;;10.82;100.00
3122;BME280;1571;52.524;14.104;2023-03-14T02:52:03;98594.75;;;10.70;100.00
3122;BME280;1571;52.524;14.104;2023-03-14T02:54:32;98593.75;;;10.71;100.00
3122;BME280;1571;52.524;14.104;2023-03-14T02:57:02;98594.75;;;10.70;100.00
3122;BME280;1571;52.524;14.104;2023-03-14T02:59:30;98595.00;;;10.67;100.00
3122;BME280;1571;52.524;14.104;2023-03-14T03:02:07;98593.59;;;10.72;100.00
3122;BME280;1571;52.524;14.104;2023-03-14T03:04:35;98577.72;;;10.62;100.00
3122;BME280;1571;52.524;14.104;2023-03-14T03:07:03;98588.09;;;10.56;100.00
3122;BME280;1571;52.524;14.104;2023-03-14T03:09:31;98576.16;;;10.70;100.00
3122;BME280;1571;52.524;14.104;2023-03-14T03:11:59;98574.63;;;10.67;100.00
3122;BME280;1571;52.524;14.104;2023-03-14T03:14:29;98578.72;;;10.61;100.00
3122;BME280;1571;52.524;14.104;2023-03-14T03:17:00;98572.81;;;10.68;100.00
3122;BME280;1571;52.524;14.104;2023-03-14T03:19:30;98557.09;;;10.56;100.00
3122;BME280;1571;52.524;14.104;2023-03-14T03:21:58;98545.28;;;10.69;100.00
3122;BME280;1571;52.524;14.104;2023-03-14T03:24:27;98541.25;;;10.65;100.00
3122;BME280;1571;52.524;14.104;2023-03-14T03:26:55;98534.97;;;10.66;100.00
3122;BME280;1571;52.524;14.104;2023-03-14T03:29:25;98540.28;;;10.66;100.00
3122;BME280;1571;52.524;14.104;2023-03-14T03:31:54;98530.66;;;10.65;100.00
3122;BME280;1571;52.524;14.104;2023-03-14T03:34:22;98513.75;;;10.66;100.00
3122;BME280;1571;52.524;14.104;2023-03-14T03:36:55;98518.06;;;10.67;100.00
3122;BME280;1571;52.524;14.104;2023-03-14T03:39:25;98501.09;;;10.59;100.00
3122;BME280;1571;52.524;14.104;2023-03-14T03:41:53;98500.41;;;10.57;100.00
3122;BME280;1571;52.524;14.104;2023-03-14T03:44:22;98504.06;;;10.74;100.00
3122;BME280;1571;52.524;14.104;2023-03-14T03:46:51;98519.50;;;10.61;100.00
3122;BME280;1571;52.524;14.104;2023-03-14T03:49:19;98520.56;;;10.50;100.00
3122;BME280;1571;52.524;14.104;2023-03-14T03:51:48;98517.38;;;10.65;100.00
3122;BME280;1571;52.524;14.104;2023-03-14T03:54:17;98517.38;;;10.65;100.00
3122;BME280;1571;52.524;14.104;2023-03-14T03:56:45;98528.31;;;10.61;100.00
3122;BME280;1571;52.524;14.104;2023-03-14T03:59:13;98526.03;;;10.67;100.00
3122;BME280;1571;52.524;14.104;2023-03-14T04:01:45;98524.38;;;10.66;100.00
3122;BME280;1571;52.524;14.104;2023-03-14T04:04:14;98522.53;;;10.66;100.00
3122;BME280;1571;52.524;14.104;2023-03-14T04:06:42;98525.88;;;10.68;100.00
3122;BME280;1571;52.524;14.104;2023-03-14T04:09:12;98524.13;;;10.59;100.00
3122;BME280;1571;52.524;14.104;2023-03-14T04:11:59;98520.03;;;10.65;100.00
3122;BME280;1571;52.524;14.104;2023-03-14T04:14:36;98515.41;;;10.67;100.00
3122;BME280;1571;52.524;14.104;2023-03-14T04:17:11;98524.19;;;10.67;100.00
3122;BME280;1571;52.524;14.104;2023-03-14T04:19:39;98525.56;;;10.53;100.00
3122;BME280;1571;52.524;14.104;2023-03-14T04:22:08;98530.84;;;10.53;100.00
3122;BME280;1571;52.524;14.104;2023-03-14T04:24:45;98512.38;;;10.61;100.00
3122;BME280;1571;52.524;14.104;2023-03-14T04:27:15;98507.97;;;10.52;100.00
3122;BME280;1571;52.524;14.104;2023-03-14T04:29:44;98511.69;;;10.59;99.97
3122;BME280;1571;52.524;14.104;2023-03-14T04:32:16;98507.28;;;10.50;99.96
3122;BME280;1571;52.524;14.104;2023-03-14T04:34:44;98508.22;;;10.59;99.59
3122;BME280;1571;52.524;14.104;2023-03-14T04:37:13;98502.59;;;10.62;98.98
3122;BME280;1571;52.524;14.104;2023-03-14T04:39:43;98493.94;;;10.60;98.67
3122;BME280;1571;52.524;14.104;2023-03-14T04:42:18;98485.53;;;10.65;98.25
3122;BME280;1571;52.524;14.104;2023-03-14T04:44:47;98489.19;;;10.63;97.74
3122;BME280;1571;52.524;14.104;2023-03-14T04:47:17;98479.53;;;10.62;97.18
3122;BME280;1571;52.524;14.104;2023-03-14T04:49:50;98472.72;;;10.60;97.00
3122;BME280;1571;52.524;14.104;2023-03-14T04:52:19;98462.88;;;10.70;96.65
3122;BME280;1571;52.524;14.104;2023-03-14T04:54:47;98459.84;;;10.65;95.96
3122;BME280;1571;52.524;14.104;2023-03-14T04:57:18;98467.19;;;10.71;95.44
3122;BME280;1571;52.524;14.104;2023-03-14T04:59:47;98469.09;;;10.61;95.35
3122;BME280;1571;52.524;14.104;2023-03-14T05:02:38;98467.38;;;10.70;94.85
3122;BME280;1571;52.524;14.104;2023-03-14T05:05:15;98466.28;;;10.62;94.63
3122;BME280;1571;52.524;14.104;2023-03-14T05:08:12;98462.88;;;10.70;94.56
3122;BME280;1571;52.524;14.104;2023-03-14T05:10:52;98454.56;;;10.65;94.10
3122;BME280;1571;52.524;14.104;2023-03-14T05:13:37;98448.25;;;10.66;93.51
3122;BME280;1571;52.524;14.104;2023-03-14T05:16:24;98445.59;;;10.66;93.13
3122;BME280;1571;52.524;14.104;2023-03-14T05:19:20;98448.38;;;10.65;93.01
3122;BME280;1571;52.524;14.104;2023-03-14T05:22:10;98438.41;;;10.58;92.57
3122;BME280;1571;52.524;14.104;2023-03-14T05:24:57;98428.16;;;10.63;92.25
3122;BME280;1571;52.524;14.104;2023-03-14T05:27:44;98426.88;;;10.68;91.69
3122;BME280;1571;52.524;14.104;2023-03-14T05:30:27;98431.78;;;10.62;91.53
3122;BME280;1571;52.524;14.104;2023-03-14T05:33:20;98423.06;;;10.70;91.23
3122;BME280;1571;52.524;14.104;2023-03-14T05:36:09;98432.00;;;10.69;90.73
3122;BME280;1571;52.524;14.104;2023-03-14T05:38:58;98428.84;;;10.66;90.69
3122;BME280;1571;52.524;14.104;2023-03-14T05:41:51;98443.94;;;10.65;90.55
3122;BME280;1571;52.524;14.104;2023-03-14T05:44:31;98423.53;;;10.66;90.50
3122;BME280;1571;52.524;14.104;2023-03-14T05:47:20;98427.84;;;10.67;90.05
3122;BME280;1571;52.524;14.104;2023-03-14T05:49:59;98431.88;;;10.71;89.48
3122;BME280;1571;52.524;14.104;2023-03-14T05:52:36;98436.50;;;10.69;89.04
3122;BME280;1571;52.524;14.104;2023-03-14T05:55:24;98427.94;;;10.75;88.83
3122;BME280;1571;52.524;14.104;2023-03-14T05:58:22;98431.41;;;10.75;88.39
3122;BME280;1571;52.524;14.104;2023-03-14T06:00:56;98437.94;;;10.81;88.11
3122;BME280;1571;52.524;14.104;2023-03-14T06:03:41;98446.50;;;10.75;87.85
3122;BME280;1571;52.524;14.104;2023-03-14T06:06:09;98462.09;;;10.78;87.64
3122;BME280;1571;52.524;14.104;2023-03-14T06:08:38;98459.78;;;10.75;87.67
3122;BME280;1571;52.524;14.104;2023-03-14T06:11:08;98457.56;;;10.88;87.11
3122;BME280;1571;52.524;14.104;2023-03-14T06:13:37;98445.03;;;10.98;86.58
3122;BME280;1571;52.524;14.104;2023-03-14T06:16:05;98449.84;;;10.77;86.78
3122;BME280;1571;52.524;14.104;2023-03-14T06:18:34;98441.69;;;10.78;86.92
3122;BME280;1571;52.524;14.104;2023-03-14T06:21:06;98442.09;;;10.83;86.71
3122;BME280;1571;52.524;14.104;2023-03-14T06:23:35;98450.66;;;10.77;86.72
3122;BME280;1571;52.524;14.104;2023-03-14T06:26:05;98444.22;;;10.80;86.46
3122;BME280;1571;52.524;14.104;2023-03-14T06:28:33;98447.09;;;10.87;86.32
3122;BME280;1571;52.524;14.104;2023-03-14T06:31:04;98447.66;;;10.98;85.51
3122;BME280;1571;52.524;14.104;2023-03-14T06:33:40;98469.31;;;11.03;85.23
3122;BME280;1571;52.524;14.104;2023-03-14T06:36:10;98466.19;;;11.08;84.74
3122;BME280;1571;52.524;14.104;2023-03-14T06:38:42;98473.47;;;11.06;84.72
3122;BME280;1571;52.524;14.104;2023-03-14T06:41:10;98473.69;;;11.13;84.68
3122;BME280;1571;52.524;14.104;2023-03-14T06:43:41;98478.34;;;11.19;84.07
3122;BME280;1571;52.524;14.104;2023-03-14T06:46:11;98463.50;;;11.26;83.65
3122;BME280;1571;52.524;14.104;2023-03-14T06:48:41;98457.84;;;11.29;83.50
3122;BME280;1571;52.524;14.104;2023-03-14T06:51:12;98465.47;;;11.24;83.40
3122;BME280;1571;52.524;14.104;2023-03-14T06:53:40;98460.44;;;11.21;83.26
3122;BME280;1571;52.524;14.104;2023-03-14T06:56:09;98469.50;;;11.28;83.27
3122;BME280;1571;52.524;14.104;2023-03-14T06:58:37;98485.78;;;11.33;83.00
3122;BME280;1571;52.524;14.104;2023-03-14T07:01:17;98485.16;;;11.39;82.74
3122;BME280;1571;52.524;14.104;2023-03-14T07:03:48;98484.03;;;11.42;82.49
3122;BME280;1571;52.524;14.104;2023-03-14T07:06:18;98487.34;;;11.44;82.19
3122;BME280;1571;52.524;14.104;2023-03-14T07:08:47;98479.84;;;11.39;81.92
3122;BME280;1571;52.524;14.104;2023-03-14T07:11:17;98496.84;;;11.46;82.18
3122;BME280;1571;52.524;14.104;2023-03-14T07:13:46;98490.00;;;11.44;82.15
3122;BME280;1571;52.524;14.104;2023-03-14T07:16:14;98493.53;;;11.53;81.44
3122;BME280;1571;52.524;14.104;2023-03-14T07:18:42;98501.81;;;11.50;81.28
3122;BME280;1571;52.524;14.104;2023-03-14T07:21:11;98508.72;;;11.60;80.91
3122;BME280;1571;52.524;14.104;2023-03-14T07:23:41;98513.69;;;11.63;80.84
3122;BME280;1571;52.524;14.104;2023-03-14T07:26:09;98510.06;;;11.64;80.64
3122;BME280;1571;52.524;14.104;2023-03-14T07:28:43;98506.56;;;11.64;80.53
3122;BME280;1571;52.524;14.104;2023-03-14T07:31:15;98506.75;;;11.71;80.42
3122;BME280;1571;52.524;14.104;2023-03-14T07:33:44;98503.00;;;11.81;79.76
3122;BME280;1571;52.524;14.104;2023-03-14T07:36:12;98508.03;;;11.84;79.47
3122;BME280;1571;52.524;14.104;2023-03-14T07:38:44;98511.16;;;11.80;79.37
3122;BME280;1571;52.524;14.104;2023-03-14T07:41:12;98510.78;;;11.75;79.45
3122;BME280;1571;52.524;14.104;2023-03-14T07:43:49;98527.88;;;11.72;79.66
3122;BME280;1571;52.524;14.104;2023-03-14T07:46:17;98508.91;;;11.67;79.68
3122;BME280;1571;52.524;14.104;2023-03-14T07:48:45;98513.13;;;11.78;79.49
3122;BME280;1571;52.524;14.104;2023-03-14T07:51:13;98513.63;;;11.81;79.35
3122;BME280;1571;52.524;14.104;2023-03-14T07:53:42;98518.97;;;11.81;79.06
3122;BME280;1571;52.524;14.104;2023-03-14T07:56:12;98526.34;;;11.87;79.10
3122;BME280;1571;52.524;14.104;2023-03-14T07:58:40;98520.69;;;11.91;79.54
3122;BME280;1571;52.524;14.104;2023-03-14T08:01:08;98515.72;;;11.87;79.05
3122;BME280;1571;52.524;14.104;2023-03-14T08:03:37;98529.19;;;11.94;78.67
3122;BME280;1571;52.524;14.104;2023-03-14T08:06:05;98516.72;;;11.95;78.33
3122;BME280;1571;52.524;14.104;2023-03-14T08:08:34;98525.72;;;11.94;78.41
3122;BME280;1571;52.524;14.104;2023-03-14T08:11:03;98529.41;;;12.01;78.23
3122;BME280;1571;52.524;14.104;2023-03-14T08:13:32;98529.56;;;11.99;78.43
3122;BME280;1571;52.524;14.104;2023-03-14T08:16:01;98517.25;;;11.98;78.43
3122;BME280;1571;52.524;14.104;2023-03-14T08:18:29;98524.09;;;12.01;78.57
3122;BME280;1571;52.524;14.104;2023-03-14T08:20:57;98535.19;;;11.96;78.07
3122;BME280;1571;52.524;14.104;2023-03-14T08:23:26;98523.47;;;12.15;77.74
3122;BME280;1571;52.524;14.104;2023-03-14T08:25:54;98521.50;;;12.17;77.53
3122;BME280;1571;52.524;14.104;2023-03-14T08:28:22;98514.50;;;12.16;77.48
3122;BME280;1571;52.524;14.104;2023-03-14T08:30:54;98523.16;;;12.18;77.39
3122;BME280;1571;52.524;14.104;2023-03-14T08:33:23;98509.38;;;12.23;77.21
3122;BME280;1571;52.524;14.104;2023-03-14T08:35:51;98504.94;;;12.32;76.90
3122;BME280;1571;52.524;14.104;2023-03-14T08:38:20;98503.66;;;12.52;76.62
3122;BME280;1571;52.524;14.104;2023-03-14T08:40:48;98509.28;;;12.49;76.13
3122;BME280;1571;52.524;14.104;2023-03-14T08:43:17;98487.19;;;12.65;75.70
3122;BME280;1571;52.524;14.104;2023-03-14T08:45:45;98501.81;;;12.53;76.15
3122;BME280;1571;52.524;14.104;2023-03-14T08:48:14;98502.53;;;12.79;75.34
3122;BME280;1571;52.524;14.104;2023-03-14T08:50:43;98507.03;;;12.70;75.15
3122;BME280;1571;52.524;14.104;2023-03-14T08:53:11;98501.34;;;12.57;74.96
3122;BME280;1571;52.524;14.104;2023-03-14T08:55:39;98512.63;;;12.43;75.16
3122;BME280;1571;52.524;14.104;2023-03-14T08:58:08;98508.31;;;12.50;75.22
3122;BME280;1571;52.524;14.104;2023-03-14T09:00:36;98520.63;;;12.67;75.23
3122;BME280;1571;52.524;14.104;2023-03-14T09:03:04;98511.72;;;12.93;74.09
3122;BME280;1571;52.524;14.104;2023-03-14T09:05:34;98502.41;;;12.97;73.69
3122;BME280;1571;52.524;14.104;2023-03-14T09:08:02;98507.38;;;13.25;73.12
3122;BME280;1571;52.524;14.104;2023-03-14T09:10:30;98505.53;;;13.25;72.93
3122;BME280;1571;52.524;14.104;2023-03-14T09:12:58;98504.91;;;13.15;72.73
3122;BME280;1571;52.524;14.104;2023-03-14T09:15:27;98506.38;;;12.77;73.20
3122;BME280;1571;52.524;14.104;2023-03-14T09:17:55;98524.69;;;13.12;73.42
3122;BME280;1571;52.524;14.104;2023-03-14T09:20:23;98507.72;;;12.97;73.14
3122;BME280;1571;52.524;14.104;2023-03-14T09:22:52;98513.84;;;13.06;72.99
3122;BME280;1571;52.524;14.104;2023-03-14T09:25:21;98513.69;;;13.07;72.62
3122;BME280;1571;52.524;14.104;2023-03-14T09:27:49;98507.38;;;13.00;72.84
3122;BME280;1571;52.524;14.104;2023-03-14T09:30:17;98516.69;;;13.12;72.52
3122;BME280;1571;52.524;14.104;2023-03-14T09:32:45;98521.38;;;13.27;72.81
3122;BME280;1571;52.524;14.104;2023-03-14T09:35:13;98507.34;;;13.58;71.46
3122;BME280;1571;52.524;14.104;2023-03-14T09:37:42;98504.38;;;13.52;70.29
3122;BME280;1571;52.524;14.104;2023-03-14T09:40:14;98504.06;;;13.47;70.87
3122;BME280;1571;52.524;14.104;2023-03-14T09:42:43;98510.38;;;13.54;70.60
3122;BME280;1571;52.524;14.104;2023-03-14T09:45:15;98503.75;;;13.98;70.76
3122;BME280;1571;52.524;14.104;2023-03-14T09:47:45;98501.00;;;13.75;70.36
3122;BME280;1571;52.524;14.104;2023-03-14T09:50:27;98513.22;;;13.37;70.31
3122;BME280;1571;52.524;14.104;2023-03-14T09:53:02;98527.69;;;13.18;71.27
3122;BME280;1571;52.524;14.104;2023-03-14T09:55:32;98521.69;;;13.48;71.28
3122;BME280;1571;52.524;14.104;2023-03-14T09:58:08;98504.13;;;13.95;70.56
3122;BME280;1571;52.524;14.104;2023-03-14T10:00:38;98507.97;;;13.84;70.27
3122;BME280;1571;52.524;14.104;2023-03-14T10:03:21;98503.75;;;14.06;69.62
3122;BME280;1571;52.524;14.104;2023-03-14T10:05:49;98488.81;;;14.28;68.25
3122;BME280;1571;52.524;14.104;2023-03-14T10:08:18;98481.75;;;14.35;68.28
3122;BME280;1571;52.524;14.104;2023-03-14T10:10:48;98488.59;;;14.38;67.60
3122;BME280;1571;52.524;14.104;2023-03-14T10:13:18;98490.97;;;14.25;67.20
3122;BME280;1571;52.524;14.104;2023-03-14T10:15:52;98480.81;;;14.28;67.18
3122;BME280;1571;52.524;14.104;2023-03-14T10:18:22;98498.72;;;14.43;66.79
3122;BME280;1571;52.524;14.104;2023-03-14T10:21:02;98490.84;;;14.57;66.59
3122;BME280;1571;52.524;14.104;2023-03-14T10:23:32;98496.44;;;14.40;67.13
3122;BME280;1571;52.524;14.104;2023-03-14T10:26:13;98490.84;;;14.57;65.55
3122;BME280;1571;52.524;14.104;2023-03-14T10:28:43;98499.75;;;14.42;65.48
3122;BME280;1571;52.524;14.104;2023-03-14T10:31:13;98510.25;;;14.04;66.02
3122;BME280;1571;52.524;14.104;2023-03-14T10:33:41;98516.34;;;14.21;67.15
3122;BME280;1571;52.524;14.104;2023-03-14T10:36:19;98512.34;;;14.25;65.99
3122;BME280;1571;52.524;14.104;2023-03-14T10:38:49;98511.38;;;14.18;67.18
3122;BME280;1571;52.524;14.104;2023-03-14T10:41:23;98504.66;;;14.30;66.53
3122;BME280;1571;52.524;14.104;2023-03-14T10:43:54;98513.97;;;14.34;66.73
3122;BME280;1571;52.524;14.104;2023-03-14T10:46:25;98512.84;;;14.20;65.66
3122;BME280;1571;52.524;14.104;2023-03-14T10:49:26;98507.81;;;13.86;65.97
3122;BME280;1571;52.524;14.104;2023-03-14T10:51:55;98510.84;;;13.83;65.38
3122;BME280;1571;52.524;14.104;2023-03-14T10:54:23;98520.53;;;13.67;65.72
3122;BME280;1571;52.524;14.104;2023-03-14T10:57:00;98535.84;;;13.57;66.29
3122;BME280;1571;52.524;14.104;2023-03-14T10:59:33;98515.88;;;13.61;65.51
3122;BME280;1571;52.524;14.104;2023-03-14T11:02:10;98534.69;;;13.60;65.80
3122;BME280;1571;52.524;14.104;2023-03-14T11:04:56;98530.22;;;13.52;66.15
3122;BME280;1571;52.524;14.104;2023-03-14T11:07:35;98527.69;;;13.59;65.88
3122;BME280;1571;52.524;14.104;2023-03-14T11:10:17;98536.69;;;13.58;65.43
3122;BME280;1571;52.524;14.104;2023-03-14T11:13:00;98536.38;;;13.52;65.49
3122;BME280;1571;52.524;14.104;2023-03-14T11:15:36;98533.69;;;13.52;65.21
3122;BME280;1571;52.524;14.104;2023-03-14T11:18:21;98544.03;;;13.39;65.87
3122;BME280;1571;52.524;14.104;2023-03-14T11:20:59;98544.06;;;13.31;65.93
3122;BME280;1571;52.524;14.104;2023-03-14T11:23:35;98543.06;;;13.40;66.66
3122;BME280;1571;52.524;14.104;2023-03-14T11:26:18;98539.41;;;13.33;66.84
3122;BME280;1571;52.524;14.104;2023-03-14T11:28:55;98542.72;;;13.43;67.05
3122;BME280;1571;52.524;14.104;2023-03-14T11:31:27;98531.72;;;13.38;67.22
3122;BME280;1571;52.524;14.104;2023-03-14T11:34:00;98534.38;;;13.30;67.78
3122;BME280;1571;52.524;14.104;2023-03-14T11:36:32;98533.06;;;13.34;68.48
3122;BME280;1571;52.524;14.104;2023-03-14T11:39:08;98535.22;;;13.47;68.42
3122;BME280;1571;52.524;14.104;2023-03-14T11:41:41;98535.69;;;13.50;68.51
3122;BME280;1571;52.524;14.104;2023-03-14T11:44:17;98534.06;;;13.33;68.90
3122;BME280;1571;52.524;14.104;2023-03-14T11:46:50;98542.38;;;13.30;69.54
3122;BME280;1571;52.524;14.104;2023-03-14T11:49:27;98531.72;;;13.22;69.66
3122;BME280;1571;52.524;14.104;2023-03-14T11:52:01;98544.69;;;13.08;69.98
3122;BME280;1571;52.524;14.104;2023-03-14T11:54:35;98529.03;;;13.13;69.98
3122;BME280;1571;52.524;14.104;2023-03-14T11:57:10;98535.69;;;13.09;69.90
3122;BME280;1571;52.524;14.104;2023-03-14T11:59:47;98532.03;;;13.27;70.12
3122;BME280;1571;52.524;14.104;2023-03-14T12:02:22;98531.03;;;13.20;70.34
3122;BME280;1571;52.524;14.104;2023-03-14T12:05:11;98524.34;;;13.24;69.75
3122;BME280;1571;52.524;14.104;2023-03-14T12:07:57;98530.38;;;13.18;70.02
3122;BME280;1571;52.524;14.104;2023-03-14T12:10:37;98525.41;;;13.31;69.78
3122;BME280;1571;52.524;14.104;2023-03-14T12:13:07;98522.03;;;13.21;69.85
3122;BME280;1571;52.524;14.104;2023-03-14T12:15:41;98528.41;;;13.44;69.48
3122;BME280;1571;52.524;14.104;2023-03-14T12:18:19;98510.25;;;13.31;68.82
3122;BME280;1571;52.524;14.104;2023-03-14T12:20:52;98508.06;;;13.43;68.68
3122;BME280;1571;52.524;14.104;2023-03-14T12:23:21;98512.38;;;13.20;68.94
3122;BME280;1571;52.524;14.104;2023-03-14T12:26:06;98514.41;;;13.34;69.49
3122;BME280;1571;52.524;14.104;2023-03-14T12:28:35;98512.06;;;13.39;69.29
3122;BME280;1571;52.524;14.104;2023-03-14T12:31:40;98509.06;;;13.42;68.66
3122;BME280;1571;52.524;14.104;2023-03-14T12:34:28;98512.25;;;13.29;69.23
3122;BME280;1571;52.524;14.104;2023-03-14T12:37:01;98515.72;;;13.38;69.42
3122;BME280;1571;52.524;14.104;2023-03-14T12:39:39;98517.41;;;13.31;69.70
3122;BME280;1571;52.524;14.104;2023-03-14T12:42:12;98507.06;;;13.20;70.60
3122;BME280;1571;52.524;14.104;2023-03-14T12:44:43;98513.03;;;13.13;72.25
3122;BME280;1571;52.524;14.104;2023-03-14T12:47:51;98502.03;;;13.17;70.72
3122;BME280;1571;52.524;14.104;2023-03-14T12:50:25;98505.91;;;13.30;70.73
3122;BME280;1571;52.524;14.104;2023-03-14T12:53:06;98510.72;;;13.27;70.75
3122;BME280;1571;52.524;14.104;2023-03-14T12:55:45;98504.72;;;13.25;71.27
3122;BME280;1571;52.524;14.104;2023-03-14T12:58:24;98494.75;;;13.10;70.99
3122;BME280;1571;52.524;14.104;2023-03-14T13:00:59;98491.25;;;13.43;70.74
3122;BME280;1571;52.524;14.104;2023-03-14T13:03:39;98492.38;;;13.48;71.17
3122;BME280;1571;52.524;14.104;2023-03-14T13:06:11;98479.66;;;13.75;70.46
3122;BME280;1571;52.524;14.104;2023-03-14T13:08:41;98478.31;;;13.87;70.16
3122;BME280;1571;52.524;14.104;2023-03-14T13:11:12;98457.19;;;14.17;68.72
3122;BME280;1571;52.524;14.104;2023-03-14T13:13:46;98469.03;;;14.14;68.22
3122;BME280;1571;52.524;14.104;2023-03-14T13:16:18;98462.50;;;14.17;67.47
3122;BME280;1571;52.524;14.104;2023-03-14T13:18:48;98464.50;;;14.23;67.05
3122;BME280;1571;52.524;14.104;2023-03-14T13:21:20;98453.31;;;14.20;66.99
3122;BME280;1571;52.524;14.104;2023-03-14T13:23:56;98464.09;;;14.03;67.29
3122;BME280;1571;52.524;14.104;2023-03-14T13:26:35;98456.81;;;14.20;67.57
3122;BME280;1571;52.524;14.104;2023-03-14T13:29:15;98471.03;;;14.12;67.16
3122;BME280;1571;52.524;14.104;2023-03-14T13:31:44;98467.50;;;13.81;67.64
3122;BME280;1571;52.524;14.104;2023-03-14T13:34:14;98485.56;;;13.46;68.63
3122;BME280;1571;52.524;14.104;2023-03-14T13:36:43;98476.59;;;13.30;69.14
3122;BME280;1571;52.524;14.104;2023-03-14T13:39:14;98483.72;;;13.54;68.63